Time;durP1;ratioP1;P1;durP2;ratioP2;P2;SDS_P1;SDS_P2;PMS_P1;PMS_P2;Temp;Humidity;BMP_temperature;BMP_pressure;BME280_temperature;BME280_humidity;BME280_pressure;Samples;Min_cycle;Max_cycle;Signal;HPM_P1;HPM_P2
2021/12/10 00:00:23;;;;;;;9.55;2.13;;;1.30;99.90;;;;;;4972786;28;20437;-69
2021/12/10 00:02:50;;;;;;;7.32;1.80;;;1.20;99.90;;;;;;4972824;28;20041;-68
2021/12/10 00:05:22;;;;;;;8.38;2.00;;;1.20;99.90;;;;;;4973513;28;20054;-69
2021/12/10 00:07:49;;;;;;;8.75;3.40;;;1.10;99.90;;;;;;4972166;28;20882;-68
2021/12/10 00:10:20;;;;;;;8.05;1.92;;;1.00;99.90;;;;;;4972970;28;20080;-69
2021/12/10 00:12:51;;;;;;;7.70;2.20;;;1.00;99.90;;;;;;4972327;28;20018;-69
2021/12/10 00:15:21;;;;;;;5.88;1.98;;;1.00;99.90;;;;;;4973643;28;20034;-69
2021/12/10 00:17:48;;;;;;;12.15;2.65;;;1.00;99.90;;;;;;4972745;28;20628;-69
2021/12/10 00:20:15;;;;;;;6.47;1.80;;;1.00;99.90;;;;;;4972184;28;20527;-69
2021/12/10 00:22:51;;;;;;;5.50;1.67;;;1.00;99.90;;;;;;4972679;28;20113;-69
2021/12/10 00:25:21;;;;;;;6.97;1.95;;;1.00;99.90;;;;;;4973889;28;20031;-69
2021/12/10 00:27:51;;;;;;;3.72;1.38;;;0.90;99.90;;;;;;4973002;28;20089;-69
2021/12/10 00:30:26;;;;;;;6.28;1.75;;;0.80;99.90;;;;;;4980030;28;20035;-69
2021/12/10 00:33:09;;;;;;;9.13;1.60;;;0.80;99.90;;;;;;4984003;28;20081;-69
2021/12/10 00:35:36;;;;;;;9.63;2.30;;;0.70;99.90;;;;;;4972703;28;20109;-69
2021/12/10 00:38:04;;;;;;;4.45;2.63;;;0.70;99.90;;;;;;4973015;28;20186;-68
2021/12/10 00:40:30;;;;;;;6.65;2.28;;;0.70;99.90;;;;;;4953523;28;20069;-68
2021/12/10 00:42:56;;;;;;;8.35;2.15;;;0.70;99.90;;;;;;4960122;28;20478;-69
2021/12/10 00:45:23;;;;;;;5.53;1.50;;;0.60;99.90;;;;;;4973558;28;20034;-69
2021/12/10 00:47:50;;;;;;;9.82;2.13;;;0.60;99.90;;;;;;4972741;28;20254;-69
2021/12/10 00:50:25;;;;;;;7.63;2.13;;;0.60;99.90;;;;;;4972840;28;20031;-69
2021/12/10 00:52:53;;;;;;;7.80;1.73;;;0.50;99.90;;;;;;4972606;28;20102;-69
2021/12/10 00:55:20;;;;;;;5.18;1.52;;;0.50;99.90;;;;;;4972796;28;20457;-68
2021/12/10 00:57:46;;;;;;;7.43;1.98;;;0.40;99.90;;;;;;4972195;28;20042;-69
2021/12/10 01:00:17;;;;;;;11.85;2.92;;;0.40;99.90;;;;;;4971689;28;20396;-69
2021/12/10 01:02:43;;;;;;;2.78;1.40;;;0.40;99.90;;;;;;4973303;28;20023;-68
2021/12/10 01:05:11;;;;;;;4.95;1.80;;;0.30;99.90;;;;;;4973143;28;20535;-69
2021/12/10 01:07:38;;;;;;;8.32;1.67;;;0.30;99.90;;;;;;4972129;28;20379;-69
2021/12/10 01:10:18;;;;;;;9.55;2.05;;;0.30;99.90;;;;;;4972639;28;20035;-69
2021/12/10 01:12:47;;;;;;;5.32;1.80;;;0.20;99.90;;;;;;4972547;28;20368;-69
2021/12/10 01:24:29;;;;;;;8.57;1.80;;;-0.10;99.90;;;;;;4972644;28;20053;-69
2021/12/10 01:26:58;;;;;;;9.52;1.50;;;-0.20;99.90;;;;;;4972889;28;20042;-69
2021/12/10 01:29:37;;;;;;;10.93;1.55;;;-0.30;99.90;;;;;;4963116;28;20419;-69
2021/12/10 01:32:05;;;;;;;6.80;2.25;;;-0.30;99.90;;;;;;4972861;28;20039;-69
2021/12/10 01:34:31;;;;;;;6.95;1.80;;;-0.40;99.90;;;;;;4972241;28;20031;-69
2021/12/10 01:36:58;;;;;;;5.07;1.33;;;-0.40;99.90;;;;;;4973338;28;20090;-69
2021/12/10 01:39:29;;;;;;;5.47;1.80;;;-0.40;99.90;;;;;;4976803;28;20102;-69
2021/12/10 01:42:02;;;;;;;4.93;1.73;;;-0.40;99.90;;;;;;4976537;28;20035;-69
2021/12/10 01:44:36;;;;;;;9.25;1.90;;;-0.40;99.90;;;;;;4976621;28;20034;-69
2021/12/10 01:47:05;;;;;;;7.05;2.22;;;-0.50;99.90;;;;;;4976431;28;20035;-69
2021/12/10 01:49:31;;;;;;;7.10;1.77;;;-0.50;99.90;;;;;;4974403;28;20034;-68
2021/12/10 01:51:57;;;;;;;10.85;2.13;;;-0.50;99.90;;;;;;4976317;28;20026;-69
2021/12/10 01:54:32;;;;;;;6.82;1.63;;;-0.50;99.90;;;;;;4976505;28;20031;-68
2021/12/10 01:56:59;;;;;;;6.43;1.50;;;-0.40;99.90;;;;;;4976531;28;20112;-68
2021/12/10 01:59:28;;;;;;;5.53;1.17;;;-0.30;99.90;;;;;;4975967;28;20142;-68
2021/12/10 02:02:00;;;;;;;9.00;1.40;;;-0.30;99.90;;;;;;4975910;28;20027;-68
2021/12/10 02:04:30;;;;;;;6.63;1.58;;;-0.20;99.90;;;;;;4976399;28;20027;-68
2021/12/10 02:06:57;;;;;;;5.45;1.35;;;-0.20;99.90;;;;;;4974871;28;20038;-68
2021/12/10 02:09:22;;;;;;;7.70;1.60;;;-0.10;99.90;;;;;;4975748;28;20325;-68
2021/12/10 02:11:49;;;;;;;6.38;1.40;;;-0.10;99.90;;;;;;4975813;28;20027;-68
2021/12/10 02:14:15;;;;;;;2.80;1.02;;;0.00;99.90;;;;;;4975997;28;20113;-68
2021/12/10 02:16:42;;;;;;;7.95;1.42;;;0.10;99.90;;;;;;4975468;28;20090;-68
2021/12/10 02:19:10;;;;;;;6.85;1.10;;;0.10;99.90;;;;;;4975788;28;20038;-68
2021/12/10 02:21:39;;;;;;;4.53;1.30;;;0.10;99.90;;;;;;4975160;28;20110;-69
2021/12/10 02:24:06;;;;;;;6.32;1.48;;;0.10;99.90;;;;;;4975885;28;20043;-68
2021/12/10 02:26:36;;;;;;;4.88;1.48;;;0.10;99.90;;;;;;4975163;28;20043;-69
2021/12/10 02:29:04;;;;;;;3.42;0.98;;;0.10;99.90;;;;;;4975107;28;20050;-69
2021/12/10 02:31:30;;;;;;;5.07;1.40;;;0.00;99.90;;;;;;4975257;28;20038;-69
2021/12/10 02:33:56;;;;;;;9.57;1.65;;;0.00;99.90;;;;;;4975556;28;20054;-69
2021/12/10 02:36:23;;;;;;;7.68;1.30;;;0.00;99.90;;;;;;4975458;28;20465;-69
2021/12/10 02:38:51;;;;;;;6.68;1.55;;;0.00;99.90;;;;;;4974749;28;20323;-69
2021/12/10 02:41:20;;;;;;;4.35;1.50;;;0.00;99.90;;;;;;4975742;28;20456;-68
2021/12/10 02:43:46;;;;;;;9.40;1.57;;;0.00;99.90;;;;;;4974536;28;20383;-68
2021/12/10 02:46:12;;;;;;;6.68;1.60;;;0.00;99.90;;;;;;4975121;28;20274;-68
2021/12/10 02:48:38;;;;;;;5.43;1.25;;;0.00;99.90;;;;;;4971964;28;20426;-68
2021/12/10 02:51:06;;;;;;;2.03;1.05;;;0.00;99.90;;;;;;4975357;28;20071;-68
2021/12/10 02:53:40;;;;;;;6.28;1.25;;;-0.10;99.90;;;;;;4975492;28;20373;-68
2021/12/10 02:56:06;;;;;;;8.13;1.33;;;-0.10;99.90;;;;;;4974966;28;20066;-68
2021/12/10 02:58:32;;;;;;;9.05;1.63;;;-0.10;99.90;;;;;;4974563;28;20038;-68
2021/12/10 03:01:20;;;;;;;6.18;1.38;;;-0.10;99.90;;;;;;4974811;28;20023;-68
2021/12/10 03:03:46;;;;;;;4.97;1.13;;;-0.10;99.90;;;;;;4973787;28;20027;-68
2021/12/10 03:06:15;;;;;;;5.43;1.27;;;-0.10;99.90;;;;;;4975190;28;20031;-68
2021/12/10 03:08:45;;;;;;;6.18;1.30;;;-0.20;99.90;;;;;;4974236;28;20027;-68
2021/12/10 03:11:13;;;;;;;12.52;2.17;;;-0.30;99.90;;;;;;4975044;28;20539;-68
2021/12/10 03:13:40;;;;;;;4.88;1.58;;;-0.30;99.90;;;;;;4974181;28;20023;-68
2021/12/10 03:16:06;;;;;;;9.73;1.77;;;-0.30;99.90;;;;;;4974774;28;20062;-68
2021/12/10 03:18:33;;;;;;;7.72;1.40;;;-0.30;99.90;;;;;;4973915;28;20031;-68
2021/12/10 03:20:59;;;;;;;9.23;1.50;;;-0.30;99.90;;;;;;4975057;28;20031;-69
2021/12/10 03:23:25;;;;;;;4.32;1.48;;;-0.30;99.90;;;;;;4973193;28;20041;-68
2021/12/10 03:25:51;;;;;;;5.40;1.40;;;-0.30;99.90;;;;;;4972871;28;20105;-68
2021/12/10 03:28:17;;;;;;;5.40;1.50;;;-0.30;99.90;;;;;;4974468;28;20023;-68
2021/12/10 03:30:47;;;;;;;7.10;1.80;;;-0.30;99.90;;;;;;4973916;28;20068;-68
2021/12/10 03:33:13;;;;;;;5.75;2.08;;;-0.40;99.90;;;;;;4973386;28;20081;-68
2021/12/10 03:35:42;;;;;;;10.68;2.47;;;-0.50;99.90;;;;;;4974083;28;20030;-68
2021/12/10 03:38:11;;;;;;;7.07;1.90;;;-0.60;99.90;;;;;;4973211;28;20090;-68
2021/12/10 03:40:38;;;;;;;5.10;1.88;;;-0.60;99.90;;;;;;4972614;28;20027;-68
2021/12/10 03:43:05;;;;;;;10.75;1.63;;;-0.60;99.90;;;;;;4974648;28;20027;-68
2021/12/10 03:45:36;;;;;;;8.75;1.73;;;-0.70;99.90;;;;;;4974598;28;20031;-68
2021/12/10 03:48:07;;;;;;;8.80;1.67;;;-0.70;99.90;;;;;;4972130;28;20031;-68
2021/12/10 03:50:32;;;;;;;8.50;3.22;;;-0.70;99.90;;;;;;4961395;28;20742;-68
2021/12/10 03:52:59;;;;;;;8.45;1.77;;;-0.70;99.90;;;;;;4963948;28;20480;-68
2021/12/10 03:55:27;;;;;;;8.75;2.30;;;-0.70;99.90;;;;;;4963832;28;20071;-68
2021/12/10 03:57:54;;;;;;;7.72;2.05;;;-0.70;99.90;;;;;;4962772;28;20604;-69
2021/12/10 04:00:23;;;;;;;8.60;2.30;;;-0.70;99.90;;;;;;4962769;28;20035;-68
2021/12/10 04:02:50;;;;;;;15.38;2.88;;;-0.80;99.90;;;;;;4963011;28;20019;-68
2021/12/10 04:05:16;;;;;;;6.78;1.75;;;-0.80;99.90;;;;;;4962770;28;20035;-68
2021/12/10 04:07:42;;;;;;;5.78;1.92;;;-0.80;99.90;;;;;;4961288;28;20031;-68
2021/12/10 04:10:10;;;;;;;13.57;2.63;;;-0.70;99.90;;;;;;4963883;28;20037;-68
2021/12/10 04:12:36;;;;;;;11.68;2.50;;;-0.60;99.90;;;;;;4963621;28;20111;-69
2021/12/10 04:15:03;;;;;;;13.48;2.83;;;-0.60;99.90;;;;;;4962687;28;20114;-69
2021/12/10 04:17:29;;;;;;;8.88;2.47;;;-0.50;99.90;;;;;;4964849;28;20571;-68
2021/12/10 04:19:54;;;;;;;13.23;2.83;;;-0.50;99.90;;;;;;4961345;28;20022;-68
2021/12/10 04:22:22;;;;;;;10.52;2.80;;;-0.50;99.90;;;;;;4961995;28;20023;-69
2021/12/10 04:24:49;;;;;;;13.20;3.03;;;-0.50;99.90;;;;;;4961015;28;20113;-68
2021/12/10 04:27:17;;;;;;;10.80;3.08;;;-0.50;99.90;;;;;;4969512;28;20038;-68
2021/12/10 04:29:43;;;;;;;9.60;3.25;;;-0.60;99.90;;;;;;4963274;28;20031;-68
2021/12/10 04:32:11;;;;;;;11.63;3.17;;;-0.60;99.90;;;;;;4962266;28;20412;-68
2021/12/10 04:34:38;;;;;;;10.00;3.60;;;-0.70;99.90;;;;;;4962635;28;20099;-69
2021/12/10 04:37:07;;;;;;;11.02;3.90;;;-0.70;99.90;;;;;;4964362;28;20544;-68
2021/12/10 04:39:37;;;;;;;14.70;3.85;;;-0.80;99.90;;;;;;4962751;28;20109;-69
2021/12/10 04:42:03;;;;;;;17.00;3.90;;;-0.80;99.90;;;;;;4964495;28;20460;-68
2021/12/10 04:44:28;;;;;;;10.02;3.47;;;-0.90;99.90;;;;;;4961496;28;20109;-68
2021/12/10 04:46:54;;;;;;;13.00;3.97;;;-0.90;99.90;;;;;;4964143;28;20109;-69
2021/12/10 04:49:20;;;;;;;12.02;3.80;;;-0.90;99.90;;;;;;4960618;28;20032;-68
2021/12/10 04:51:51;;;;;;;9.43;4.53;;;-0.90;99.90;;;;;;4959724;28;20030;-68
2021/12/10 04:54:21;;;;;;;14.93;6.55;;;-0.90;99.90;;;;;;4961513;28;20031;-68
2021/12/10 04:56:48;;;;;;;15.73;5.47;;;-1.00;99.90;;;;;;4960615;28;20190;-68
2021/12/10 04:59:17;;;;;;;12.30;4.80;;;-1.00;99.90;;;;;;4964025;28;20664;-69
2021/12/10 05:01:45;;;;;;;13.10;5.90;;;-0.90;99.90;;;;;;4960740;28;20038;-68
2021/12/10 05:04:12;;;;;;;23.35;5.80;;;-0.90;99.90;;;;;;4960652;28;20713;-68
2021/12/10 05:06:39;;;;;;;10.18;4.50;;;-0.90;99.90;;;;;;4963860;28;20049;-69
2021/12/10 05:09:09;;;;;;;13.60;5.07;;;-0.90;99.90;;;;;;4962147;28;20034;-69
2021/12/10 05:11:34;;;;;;;;;;;-1.00;99.90;;;;;;4962541;28;20043;-68
2021/12/10 05:14:01;;;;;;;12.48;5.05;;;-1.00;99.90;;;;;;4963499;28;19906;-68
2021/12/10 05:16:28;;;;;;;11.40;5.82;;;-1.00;99.90;;;;;;4962083;28;20035;-69
2021/12/10 05:18:58;;;;;;;11.10;5.35;;;;;;;;;;4962439;28;20030;-68
2021/12/10 05:21:25;;;;;;;15.00;6.38;;;;;;;;;;4962815;28;20035;-68
2021/12/10 05:23:51;;;;;;;15.20;6.30;;;;;;;;;;4961688;28;20059;-68
2021/12/10 05:26:17;;;;;;;16.50;6.72;;;;;;;;;;4960489;28;20031;-68
2021/12/10 05:28:43;;;;;;;11.77;6.13;;;;;;;;;;4961411;28;20023;-68
2021/12/10 05:31:10;;;;;;;16.15;6.88;;;;;;;;;;4965054;28;20054;-68
2021/12/10 05:33:36;;;;;;;15.98;7.30;;;;;;;;;;4959204;28;20027;-68
2021/12/10 05:36:05;;;;;;;14.65;7.45;;;;;;;;;;4969090;28;20062;-68
2021/12/10 05:38:31;;;;;;;15.02;6.50;;;;;;;;;;4972552;28;20019;-68
2021/12/10 05:40:59;;;;;;;20.65;8.55;;;;;;;;;;4971949;28;20041;-69
2021/12/10 05:43:25;;;;;;;13.02;6.55;;;;;;;;;;4972634;28;20023;-68
2021/12/10 05:45:51;;;;;;;16.23;6.70;;;;;;;;;;4971520;28;20035;-68
2021/12/10 05:48:18;;;;;;;14.40;7.05;;;;;;;;;;4972330;28;20034;-68
2021/12/10 05:50:44;;;;;;;16.85;6.47;;;;;;;;;;4987272;28;20029;-68
2021/12/10 05:53:10;;;;;;;13.73;6.68;;;;;;;;;;4960694;28;20051;-69
2021/12/10 05:55:37;;;;;;;17.23;7.40;;;;;;;;;;4971035;28;20424;-69
2021/12/10 05:58:03;;;;;;;16.42;7.88;;;;;;;;;;4972672;28;20138;-68
2021/12/10 06:00:31;;;;;;;14.70;7.78;;;;;;;;;;4972546;28;20034;-68
2021/12/10 06:02:58;;;;;;;17.98;8.00;;;;;;;;;;4970110;28;20586;-70
2021/12/10 06:05:24;;;;;;;15.68;7.55;;;;;;;;;;4960550;28;20042;-69
2021/12/10 06:07:50;;;;;;;18.77;7.43;;;;;;;;;;4975298;28;20041;-69
2021/12/10 06:10:17;;;;;;;16.73;7.50;;;;;;;;;;4991966;28;20029;-68
2021/12/10 06:12:44;;;;;;;17.50;8.15;;;-1.20;99.90;;;;;;4990882;28;20029;-72
2021/12/10 06:15:13;;;;;;;17.20;9.15;;;-1.40;99.90;;;;;;4990535;28;20472;-67
2021/12/10 06:17:39;;;;;;;13.80;7.55;;;-1.60;99.90;;;;;;4973767;28;20058;-66
2021/12/10 06:20:08;;;;;;;14.38;7.80;;;-1.70;99.90;;;;;;4972114;28;20101;-69
2021/12/10 06:22:33;;;;;;;19.10;7.68;;;-1.80;99.90;;;;;;4971874;28;20035;-65
2021/12/10 06:24:59;;;;;;;23.63;9.60;;;-1.80;99.90;;;;;;4975613;28;20346;-66
2021/12/10 06:27:25;;;;;;;14.70;8.10;;;-1.90;99.90;;;;;;4974342;28;20452;-65
2021/12/10 06:29:50;;;;;;;17.80;9.00;;;-1.90;99.90;;;;;;4974926;28;20496;-65
2021/12/10 06:32:16;;;;;;;21.17;8.93;;;-1.90;99.90;;;;;;4976070;28;20035;-66
2021/12/10 06:34:42;;;;;;;24.85;10.27;;;-1.80;99.90;;;;;;4973774;28;20073;-68
2021/12/10 06:37:08;;;;;;;17.42;8.50;;;-1.80;99.90;;;;;;4973648;28;20039;-71
2021/12/10 06:39:34;;;;;;;15.70;8.32;;;-1.70;99.90;;;;;;4975211;28;20541;-70
2021/12/10 06:42:00;;;;;;;19.35;8.75;;;-1.60;99.90;;;;;;4974255;28;20110;-74
2021/12/10 06:44:25;;;;;;;19.90;8.98;;;-1.60;99.90;;;;;;4975196;28;20101;-73
2021/12/10 06:46:51;;;;;;;17.63;8.70;;;-1.60;99.90;;;;;;4974427;28;20030;-70
2021/12/10 06:49:18;;;;;;;17.17;8.75;;;-1.60;99.90;;;;;;4975749;28;20027;-70
2021/12/10 06:51:44;;;;;;;18.63;8.82;;;-1.60;99.90;;;;;;4974576;28;20106;-72
2021/12/10 06:54:11;;;;;;;20.50;10.13;;;-1.60;99.90;;;;;;4975026;28;20060;-76
2021/12/10 06:56:37;;;;;;;21.00;9.77;;;-1.60;99.90;;;;;;4972117;28;20400;-71
2021/12/10 06:59:08;;;;;;;19.33;8.95;;;-1.60;99.90;;;;;;4980726;28;20042;-71
2021/12/10 07:01:40;;;;;;;19.23;9.85;;;-1.60;99.90;;;;;;4995278;28;20030;-71
2021/12/10 07:04:12;;;;;;;21.77;9.52;;;-1.60;99.90;;;;;;4976535;28;20388;-71
2021/12/10 07:06:42;;;;;;;25.80;10.05;;;-1.50;99.90;;;;;;4974513;28;20031;-70
2021/12/10 07:09:13;;;;;;;23.40;10.73;;;-1.50;99.90;;;;;;4974731;28;20030;-70
2021/12/10 07:11:38;;;;;;;23.83;10.55;;;-1.40;99.90;;;;;;4970978;28;20042;-70
2021/12/10 07:14:04;;;;;;;16.52;9.18;;;-1.40;99.90;;;;;;4974301;28;20031;-70
2021/12/10 07:16:31;;;;;;;22.25;9.38;;;-1.40;99.90;;;;;;4974118;28;20445;-71
2021/12/10 07:18:59;;;;;;;17.55;9.38;;;-1.40;99.90;;;;;;4973871;28;20039;-70
2021/12/10 07:21:26;;;;;;;20.27;9.02;;;-1.40;99.90;;;;;;4974797;28;20092;-70
2021/12/10 07:23:53;;;;;;;21.50;10.20;;;-1.40;99.90;;;;;;4973357;28;20101;-70
2021/12/10 07:26:19;;;;;;;13.70;8.55;;;-1.40;99.90;;;;;;4973764;28;20049;-70
2021/12/10 07:28:45;;;;;;;17.60;10.02;;;-1.40;99.90;;;;;;4989542;28;20070;-70
2021/12/10 07:31:11;;;;;;;16.73;9.13;;;-1.40;99.90;;;;;;4975332;28;20122;-70
2021/12/10 07:33:37;;;;;;;22.05;11.23;;;-1.40;99.90;;;;;;4974046;28;20543;-70
2021/12/10 07:36:04;;;;;;;17.98;8.65;;;-1.30;99.90;;;;;;4972345;28;20113;-70
2021/12/10 07:38:30;;;;;;;14.52;7.75;;;-1.20;99.90;;;;;;4974221;28;20074;-70
2021/12/10 07:40:56;;;;;;;16.13;8.98;;;-1.20;99.90;;;;;;4973041;28;20768;-70
2021/12/10 07:43:22;;;;;;;14.75;8.30;;;-1.10;99.90;;;;;;4973997;28;20031;-69
2021/12/10 07:45:51;;;;;;;14.07;8.18;;;-1.10;99.90;;;;;;4972757;28;20496;-69
2021/12/10 07:48:20;;;;;;;14.55;8.02;;;-1.10;99.90;;;;;;4973899;28;20077;-69
2021/12/10 07:51:05;;;;;;;16.08;7.38;;;-1.10;99.90;;;;;;4972756;28;20391;-70
2021/12/10 07:53:33;;;;;;;14.48;7.03;;;-1.00;99.90;;;;;;4973663;28;20037;-76
2021/12/10 07:56:02;;;;;;;11.10;6.80;;;-0.90;99.90;;;;;;4971181;28;20066;-69
2021/12/10 07:58:29;;;;;;;11.23;7.05;;;-0.80;99.90;;;;;;4982114;28;20035;-70
2021/12/10 08:00:55;;;;;;;15.55;7.25;;;-0.80;99.90;;;;;;4957627;28;20464;-70
2021/12/10 08:03:21;;;;;;;12.48;7.38;;;-0.70;99.90;;;;;;4973495;28;20030;-70
2021/12/10 08:05:49;;;;;;;16.88;7.35;;;-0.70;99.90;;;;;;4972783;28;20472;-70
2021/12/10 08:08:15;;;;;;;10.43;6.45;;;-0.60;99.90;;;;;;4972875;28;20546;-70
2021/12/10 08:10:42;;;;;;;9.30;6.05;;;-0.60;99.90;;;;;;4972899;28;20030;-69
2021/12/10 08:13:09;;;;;;;12.18;5.55;;;-0.50;99.90;;;;;;4972734;28;20061;-70
2021/12/10 08:15:36;;;;;;;11.60;5.30;;;-0.50;99.90;;;;;;4973204;28;20507;-70
2021/12/10 08:18:02;;;;;;;10.38;4.70;;;-0.40;99.90;;;;;;4972389;28;20166;-69
2021/12/10 08:20:28;;;;;;;8.98;4.78;;;-0.20;99.90;;;;;;4973043;28;20391;-70
2021/12/10 08:22:55;;;;;;;8.88;3.85;;;-0.10;99.90;;;;;;4972449;28;20027;-69
2021/12/10 08:25:23;;;;;;;9.27;4.45;;;0.00;99.90;;;;;;4970860;28;20392;-69
2021/12/10 08:27:50;;;;;;;8.88;4.43;;;0.10;99.90;;;;;;4988117;28;20077;-69
2021/12/10 08:30:18;;;;;;;10.02;4.15;;;0.10;99.90;;;;;;4992268;28;20042;-69
2021/12/10 08:32:44;;;;;;;8.20;4.45;;;0.20;99.90;;;;;;4985808;28;20027;-69
2021/12/10 08:35:14;;;;;;;8.20;3.85;;;0.20;99.90;;;;;;4972960;28;20066;-70
2021/12/10 08:37:40;;;;;;;8.20;4.10;;;0.20;99.90;;;;;;4973039;28;20027;-70
2021/12/10 08:40:10;;;;;;;9.05;4.15;;;0.20;99.90;;;;;;4972153;28;20026;-70
2021/12/10 08:42:36;;;;;;;10.75;4.45;;;0.20;99.90;;;;;;4973178;28;20074;-70
2021/12/10 08:45:04;;;;;;;9.00;4.18;;;0.30;99.90;;;;;;4972015;28;20034;-70
2021/12/10 08:47:30;;;;;;;9.27;4.13;;;0.30;99.90;;;;;;4972935;28;20487;-70
2021/12/10 08:49:56;;;;;;;7.78;4.60;;;0.40;99.90;;;;;;4972328;28;20031;-70
2021/12/10 08:52:21;;;;;;;11.80;4.50;;;0.40;99.90;;;;;;4972603;28;20122;-70
2021/12/10 08:54:47;;;;;;;10.95;5.32;;;0.50;99.90;;;;;;4971119;28;20062;-70
2021/12/10 08:57:14;;;;;;;8.65;4.80;;;0.60;99.90;;;;;;4971810;28;20054;-70
2021/12/10 08:59:41;;;;;;;10.30;5.03;;;0.60;99.90;;;;;;4972984;28;20043;-71
2021/12/10 09:02:14;;;;;;;11.38;5.28;;;0.70;99.90;;;;;;4973678;28;20726;-70
2021/12/10 09:04:41;;;;;;;8.80;4.72;;;0.80;99.90;;;;;;4974979;28;20031;-70
2021/12/10 09:07:10;;;;;;;13.50;4.65;;;0.90;99.90;;;;;;4972387;28;20043;-70
2021/12/10 09:09:40;;;;;;;8.27;4.93;;;1.00;99.90;;;;;;4972488;28;20027;-70
2021/12/10 09:12:12;;;;;;;8.52;4.70;;;1.00;99.90;;;;;;4972066;28;20073;-71
2021/12/10 09:14:44;;;;;;;11.32;4.90;;;1.10;99.90;;;;;;4972352;28;20026;-71
2021/12/10 09:17:12;;;;;;;8.65;4.07;;;1.20;99.90;;;;;;4972496;28;20140;-70
2021/12/10 09:19:40;;;;;;;8.45;4.35;;;1.20;99.90;;;;;;4972675;28;20023;-71
2021/12/10 09:22:08;;;;;;;8.05;4.85;;;1.30;99.90;;;;;;4972117;28;20041;-70
2021/12/10 09:24:35;;;;;;;10.30;4.60;;;1.30;99.90;;;;;;4972088;28;20031;-70
2021/12/10 09:27:03;;;;;;;5.45;3.08;;;1.40;99.90;;;;;;4976158;28;20034;-70
2021/12/10 09:29:35;;;;;;;5.68;2.88;;;1.40;99.90;;;;;;4989803;28;20469;-70
2021/12/10 09:32:03;;;;;;;9.02;3.10;;;1.50;99.90;;;;;;4974849;28;20073;-71
2021/12/10 09:34:28;;;;;;;4.55;2.22;;;1.60;99.90;;;;;;4977007;28;20078;-71
2021/12/10 09:36:55;;;;;;;6.05;2.53;;;1.70;99.90;;;;;;4971522;28;20049;-71
2021/12/10 09:39:22;;;;;;;3.30;2.00;;;1.70;99.90;;;;;;4972594;28;20025;-71
2021/12/10 09:41:49;;;;;;;6.18;2.15;;;1.70;99.90;;;;;;4971235;28;20391;-70
2021/12/10 09:44:16;;;;;;;4.85;2.10;;;1.80;99.90;;;;;;4972027;28;20035;-71
2021/12/10 09:46:43;;;;;;;8.10;1.88;;;1.80;99.90;;;;;;4971133;28;20054;-71
2021/12/10 09:49:10;;;;;;;6.05;1.95;;;1.90;99.90;;;;;;4971119;28;20061;-72
2021/12/10 09:51:58;;;;;;;5.05;1.58;;;2.00;99.90;;;;;;4971939;28;20074;-71
2021/12/10 09:54:30;;;;;;;5.18;1.77;;;2.10;99.90;;;;;;4971666;28;20086;-71
2021/12/10 09:57:22;;;;;;;6.97;1.50;;;2.20;99.90;;;;;;4969717;28;20101;-70
2021/12/10 09:59:51;;;;;;;5.60;1.90;;;2.40;99.90;;;;;;4974458;28;20042;-70
2021/12/10 10:02:17;;;;;;;3.83;1.40;;;2.50;99.90;;;;;;4975526;28;20031;-70
2021/12/10 10:04:48;;;;;;;3.50;1.52;;;2.60;99.40;;;;;;4969010;28;20019;-70
2021/12/10 10:07:23;;;;;;;5.32;1.65;;;2.60;99.40;;;;;;4963347;28;20034;-71
2021/12/10 10:09:51;;;;;;;4.00;1.63;;;2.60;99.90;;;;;;4974496;28;20531;-71
2021/12/10 10:12:25;;;;;;;4.55;1.60;;;2.70;99.90;;;;;;4975566;28;20026;-70
2021/12/10 10:14:51;;;;;;;6.40;1.83;;;2.80;99.90;;;;;;4974834;28;20081;-72
2021/12/10 10:17:18;;;;;;;4.53;1.38;;;2.90;99.00;;;;;;4975353;28;20480;-72
2021/12/10 10:19:44;;;;;;;3.05;1.15;;;2.90;97.70;;;;;;4974750;28;20105;-71
2021/12/10 10:22:16;;;;;;;3.08;1.70;;;3.00;97.30;;;;;;4975235;28;20054;-70
2021/12/10 10:24:43;;;;;;;6.35;1.70;;;3.00;97.70;;;;;;4974926;28;20043;-70
2021/12/10 10:27:23;;;;;;;5.60;1.77;;;3.10;96.30;;;;;;4973765;28;20812;-71
2021/12/10 10:29:53;;;;;;;4.18;1.42;;;3.20;97.30;;;;;;4974748;28;20371;-70
2021/12/10 10:32:20;;;;;;;;;;;3.20;97.10;;;;;;4975651;28;20054;-69
2021/12/10 10:34:54;;;;;;;1.38;0.88;;;3.20;97.00;;;;;;4974907;28;19965;-69
2021/12/10 10:37:21;;;;;;;4.78;1.90;;;3.30;95.10;;;;;;4975288;28;20484;-69
2021/12/10 10:39:48;;;;;;;8.05;1.55;;;3.30;95.70;;;;;;4974434;28;20042;-68
2021/12/10 10:42:20;;;;;;;7.88;1.75;;;3.20;95.00;;;;;;4975053;28;20035;-69
2021/12/10 10:44:47;;;;;;;3.08;1.50;;;3.20;96.10;;;;;;4973277;28;20031;-69
2021/12/10 10:47:13;;;;;;;3.20;1.48;;;3.30;94.50;;;;;;4973945;28;20031;-69
2021/12/10 10:49:45;;;;;;;3.80;1.27;;;3.30;95.00;;;;;;4975040;28;20479;-70
2021/12/10 10:52:17;;;;;;;3.47;1.67;;;3.30;95.40;;;;;;4974373;28;20030;-71
2021/12/10 10:54:44;;;;;;;5.15;1.73;;;3.40;95.60;;;;;;4973489;28;20097;-68
2021/12/10 10:57:14;;;;;;;3.53;1.48;;;3.50;94.80;;;;;;4973361;28;20055;-70
2021/12/10 10:59:40;;;;;;;8.47;1.33;;;3.50;94.30;;;;;;4975173;28;20099;-71
2021/12/10 11:02:08;;;;;;;6.25;2.25;;;3.60;94.70;;;;;;4973504;28;20026;-71
2021/12/10 11:04:40;;;;;;;4.53;1.80;;;3.60;93.40;;;;;;4969082;28;20031;-69
2021/12/10 11:07:20;;;;;;;8.40;1.45;;;3.70;92.40;;;;;;4954941;29;20219;-69
2021/12/10 11:10:01;;;;;;;3.90;1.23;;;3.80;92.20;;;;;;4954328;28;20035;-70
2021/12/10 11:12:32;;;;;;;4.07;1.40;;;3.80;91.40;;;;;;4955441;28;20267;-71
2021/12/10 11:15:01;;;;;;;4.28;1.38;;;3.80;90.90;;;;;;4954802;29;20046;-70
2021/12/10 11:17:32;;;;;;;5.60;1.60;;;3.90;91.10;;;;;;4974362;28;20464;-69
2021/12/10 11:20:05;;;;;;;7.05;1.67;;;3.90;90.40;;;;;;4971255;28;20023;-70
2021/12/10 11:22:31;;;;;;;5.10;1.10;;;3.90;89.20;;;;;;4974131;28;20055;-71
2021/12/10 11:25:02;;;;;;;8.80;2.22;;;3.90;87.20;;;;;;4973279;28;20499;-69
2021/12/10 11:27:37;;;;;;;2.58;1.23;;;3.90;87.00;;;;;;4974769;28;20038;-70
2021/12/10 11:30:03;;;;;;;10.27;2.10;;;3.90;85.30;;;;;;4973803;28;20043;-70
2021/12/10 11:32:42;;;;;;;10.30;2.38;;;3.90;87.80;;;;;;4974210;28;20031;-69
2021/12/10 11:35:15;;;;;;;4.80;1.07;;;3.90;88.30;;;;;;4973480;28;20130;-70
2021/12/10 11:38:04;;;;;;;4.50;1.17;;;3.90;87.30;;;;;;4974528;28;20030;-70
2021/12/10 11:40:53;;;;;;;3.00;1.02;;;4.00;85.10;;;;;;4973755;28;20023;-70
2021/12/10 11:49:14;;;;;;;4.38;0.65;;;3.80;90.90;;;;;;4973991;28;20030;-71
2021/12/10 11:51:50;;;;;;;3.28;0.80;;;3.70;92.40;;;;;;4965524;28;20472;-72
2021/12/10 11:54:32;;;;;;;1.67;0.88;;;3.60;95.40;;;;;;4972637;28;20039;-71
2021/12/10 11:57:16;;;;;;;2.47;0.68;;;3.50;98.60;;;;;;4984104;28;20046;-73
2021/12/10 11:59:48;;;;;;;2.90;0.50;;;3.30;99.90;;;;;;4985492;28;20058;-72
2021/12/10 12:02:21;;;;;;;1.00;0.75;;;3.10;99.90;;;;;;4975549;28;20034;-73
2021/12/10 12:05:09;;;;;;;5.20;0.50;;;2.80;99.90;;;;;;4974443;28;20026;-72
2021/12/10 12:07:40;;;;;;;2.65;0.88;;;2.50;99.90;;;;;;4957978;28;20130;-72
2021/12/10 12:10:38;;;;;;;2.40;1.00;;;2.30;99.90;;;;;;4968316;28;20033;-73
2021/12/10 12:13:35;;;;;;;2.83;0.88;;;2.10;99.90;;;;;;4973701;28;20069;-73
2021/12/10 12:16:01;;;;;;;2.60;1.02;;;1.90;99.90;;;;;;4972946;28;20117;-71
2021/12/10 12:18:30;;;;;;;4.75;0.85;;;1.70;99.90;;;;;;4973483;28;20381;-71
2021/12/10 12:21:00;;;;;;;2.70;1.00;;;1.60;99.90;;;;;;4972221;28;20050;-71
2021/12/10 12:26:22;;;;;;;2.88;1.77;;;1.50;99.90;;;;;;4983230;28;20025;-72
2021/12/10 12:29:11;;;;;;;3.87;1.40;;;1.50;99.90;;;;;;4988759;28;20468;-71
2021/12/10 12:31:52;;;;;;;7.40;2.05;;;1.40;99.90;;;;;;4972063;28;20042;-73
2021/12/10 12:34:24;;;;;;;4.53;2.00;;;1.40;99.90;;;;;;4972937;28;20035;-72
2021/12/10 12:36:58;;;;;;;4.97;1.27;;;1.30;99.90;;;;;;4972814;28;20042;-70
2021/12/10 12:39:38;;;;;;;5.75;1.52;;;1.30;99.90;;;;;;4972570;28;20042;-71
2021/12/10 12:42:19;;;;;;;;;;;1.30;99.90;;;;;;4972656;28;20041;-72
2021/12/10 12:45:01;;;;;;;7.10;1.60;;;1.30;99.90;;;;;;4972931;28;20276;-72
2021/12/10 12:47:32;;;;;;;2.00;1.30;;;1.40;99.90;;;;;;4973372;28;20107;-71
2021/12/10 12:50:09;;;;;;;2.63;1.20;;;1.40;99.90;;;;;;4972365;28;20131;-71
2021/12/10 12:52:40;;;;;;;3.25;1.70;;;1.40;99.90;;;;;;4973241;28;20085;-71
2021/12/10 12:55:14;;;;;;;2.65;1.50;;;1.40;99.90;;;;;;4971041;28;20074;-71
2021/12/10 12:57:43;;;;;;;4.53;1.58;;;1.40;99.90;;;;;;4973124;28;20046;-71
2021/12/10 13:00:18;;;;;;;4.18;1.42;;;1.50;99.90;;;;;;4971786;28;20042;-70
2021/12/10 13:02:47;;;;;;;2.78;1.50;;;1.50;99.90;;;;;;4973021;28;20369;-71
2021/12/10 13:05:13;;;;;;;2.63;1.40;;;1.50;99.90;;;;;;4972212;28;20046;-71
2021/12/10 13:07:38;;;;;;;5.47;1.63;;;1.60;99.90;;;;;;4973219;28;20027;-71
2021/12/10 13:10:08;;;;;;;3.17;1.40;;;1.60;99.90;;;;;;4972097;28;20131;-70
2021/12/10 13:15:12;;;;;;;9.32;1.42;;;1.70;99.90;;;;;;4971865;28;19982;-70
2021/12/10 13:17:45;;;;;;;3.67;1.55;;;1.70;99.90;;;;;;4972742;28;20380;-71
2021/12/10 13:20:19;;;;;;;4.28;1.45;;;1.70;99.90;;;;;;4971678;28;20031;-70
2021/12/10 13:22:47;;;;;;;2.92;1.80;;;1.70;99.90;;;;;;4972556;28;20491;-70
2021/12/10 13:25:17;;;;;;;2.55;1.30;;;1.80;99.90;;;;;;4970808;28;20619;-70